Time;durP1;ratioP1;P1;durP2;ratioP2;P2;SDS_P1;SDS_P2;PMS_P1;PMS_P2;Temp;Humidity;BMP_temperature;BMP_pressure;BME280_temperature;BME280_humidity;BME280_pressure;Samples;Min_cycle;Max_cycle;Signal;HPM_P1;HPM_P2
2022/08/02 00:00:28;;;;;;;2.22;1.90;;;24.40;88.90;;;;;;5016112;28;20234;-75
2022/08/02 00:02:54;;;;;;;2.33;2.00;;;24.40;88.80;;;;;;5015466;28;20188;-75
2022/08/02 00:05:20;;;;;;;2.53;1.80;;;24.40;88.60;;;;;;5015710;28;20275;-75
2022/08/02 00:07:46;;;;;;;2.00;1.85;;;24.40;88.60;;;;;;5014610;28;20272;-75
2022/08/02 00:10:12;;;;;;;1.80;1.70;;;24.40;88.50;;;;;;5015341;28;20212;-75
2022/08/02 00:12:38;;;;;;;1.83;1.60;;;24.40;88.40;;;;;;5014414;28;20185;-74
2022/08/02 00:15:09;;;;;;;2.10;1.83;;;24.40;88.40;;;;;;5014406;28;20181;-75
2022/08/02 00:17:35;;;;;;;2.00;1.75;;;24.40;88.20;;;;;;5013707;28;20240;-71
2022/08/02 00:20:01;;;;;;;2.22;1.77;;;24.40;88.10;;;;;;5014607;28;20239;-75
2022/08/02 00:22:27;;;;;;;1.92;1.83;;;24.40;88.00;;;;;;5015185;28;20177;-75
2022/08/02 00:24:53;;;;;;;1.73;1.55;;;24.40;87.90;;;;;;4997469;28;20193;-75
2022/08/02 00:27:19;;;;;;;1.70;1.60;;;24.40;87.90;;;;;;4997745;28;20236;-75
2022/08/02 00:29:45;;;;;;;1.70;1.60;;;24.40;87.90;;;;;;5014457;28;20288;-75
2022/08/02 00:32:10;;;;;;;1.65;1.55;;;24.40;87.70;;;;;;5014012;28;20250;-75
2022/08/02 00:34:36;;;;;;;1.50;1.40;;;24.40;87.80;;;;;;4997871;28;20185;-75
2022/08/02 00:37:02;;;;;;;1.60;1.50;;;24.40;87.50;;;;;;5013851;28;20204;-75
2022/08/02 00:39:28;;;;;;;1.73;1.63;;;24.40;87.70;;;;;;5013300;28;20224;-75
2022/08/02 00:41:54;;;;;;;1.90;1.70;;;24.40;87.60;;;;;;5013899;28;20189;-75
2022/08/02 00:44:20;;;;;;;1.80;1.67;;;24.40;87.60;;;;;;5013815;28;20180;-75
2022/08/02 00:46:46;;;;;;;1.98;1.50;;;24.40;87.50;;;;;;4997316;28;20216;-75
2022/08/02 00:49:13;;;;;;;1.80;1.70;;;24.40;87.50;;;;;;5014132;28;20207;-75
2022/08/02 00:51:40;;;;;;;1.83;1.73;;;24.40;87.50;;;;;;5015330;28;20180;-75
2022/08/02 00:54:07;;;;;;;2.10;1.92;;;24.40;87.50;;;;;;5015762;28;20279;-75
2022/08/02 00:56:34;;;;;;;1.52;1.42;;;24.40;87.30;;;;;;5015477;28;20200;-75
2022/08/02 00:59:02;;;;;;;1.80;1.70;;;24.40;87.30;;;;;;5014956;28;20243;-75
2022/08/02 01:01:40;;;;;;;2.17;1.90;;;24.40;87.20;;;;;;5014569;28;20216;-75
2022/08/02 01:04:09;;;;;;;1.83;1.73;;;24.40;87.20;;;;;;4996989;28;20620;-75
2022/08/02 01:06:37;;;;;;;1.95;1.83;;;24.40;87.10;;;;;;5012491;28;20201;-75
2022/08/02 01:09:04;;;;;;;1.60;1.50;;;24.40;87.10;;;;;;4996128;28;20189;-75
2022/08/02 01:11:31;;;;;;;1.70;1.60;;;24.40;87.00;;;;;;5013293;28;20185;-75
2022/08/02 01:14:04;;;;;;;1.70;1.60;;;24.40;86.90;;;;;;5014162;28;20196;-75
2022/08/02 01:16:36;;;;;;;1.75;1.65;;;24.40;86.80;;;;;;5010014;28;20233;-75
2022/08/02 01:19:47;;;;;;;1.60;1.50;;;24.40;87.60;;;;;;4995072;28;20214;-75
2022/08/02 01:22:33;;;;;;;1.80;1.70;;;24.40;86.80;;;;;;4976244;28;20194;-75
2022/08/02 01:25:18;;;;;;;1.60;1.50;;;24.30;86.60;;;;;;4993862;28;20281;-75
2022/08/02 01:28:08;;;;;;;1.65;1.55;;;24.30;86.40;;;;;;5010465;28;20209;-75
2022/08/02 01:30:36;;;;;;;1.60;1.50;;;24.30;86.40;;;;;;5011393;28;20182;-75
2022/08/02 01:33:06;;;;;;;1.80;1.70;;;24.30;86.40;;;;;;4994760;28;20197;-75
2022/08/02 01:35:41;;;;;;;1.50;1.40;;;24.40;86.50;;;;;;4995293;28;20324;-75
2022/08/02 01:38:24;;;;;;;1.50;1.40;;;24.30;86.30;;;;;;4993148;28;20220;-74
2022/08/02 01:40:52;;;;;;;2.25;1.90;;;24.30;86.40;;;;;;4978560;28;20645;-75
2022/08/02 01:43:21;;;;;;;1.70;1.55;;;24.30;86.20;;;;;;4993939;28;20186;-75
2022/08/02 01:45:48;;;;;;;2.03;1.92;;;24.30;86.10;;;;;;4994036;28;20202;-75
2022/08/02 01:48:16;;;;;;;1.30;1.30;;;24.30;86.00;;;;;;4976917;28;20216;-75
2022/08/02 01:50:45;;;;;;;1.77;1.67;;;24.30;86.00;;;;;;4993954;28;20280;-75
2022/08/02 01:53:14;;;;;;;1.60;1.50;;;24.30;85.90;;;;;;4978050;28;20190;-75
2022/08/02 01:55:45;;;;;;;1.70;1.60;;;24.30;86.60;;;;;;4994194;28;20281;-75
2022/08/02 01:58:16;;;;;;;2.10;1.50;;;24.30;85.80;;;;;;4992724;28;20221;-75
2022/08/02 02:00:45;;;;;;;1.77;1.60;;;24.40;85.90;;;;;;4993245;28;20240;-75
2022/08/02 02:03:32;;;;;;;1.75;1.65;;;24.30;85.70;;;;;;4995227;28;20181;-75
2022/08/02 02:06:02;;;;;;;1.50;1.40;;;24.30;85.70;;;;;;4995113;28;20289;-74
2022/08/02 02:08:38;;;;;;;2.08;1.73;;;24.30;85.70;;;;;;4993113;28;20712;-74
2022/08/02 02:11:06;;;;;;;1.65;1.55;;;24.30;85.70;;;;;;4992121;28;20188;-75
2022/08/02 02:13:36;;;;;;;1.60;1.50;;;24.30;85.50;;;;;;4992366;28;20193;-75
2022/08/02 02:16:05;;;;;;;1.67;1.58;;;24.30;85.50;;;;;;4992028;28;20181;-75
2022/08/02 02:18:39;;;;;;;1.73;1.63;;;24.30;85.40;;;;;;5007851;28;20177;-75
2022/08/02 02:21:06;;;;;;;1.65;1.48;;;24.30;85.40;;;;;;4993052;28;20307;-75
2022/08/02 02:23:32;;;;;;;1.60;1.50;;;24.30;86.10;;;;;;4978218;28;20190;-74
2022/08/02 02:25:59;;;;;;;1.50;1.40;;;24.30;85.30;;;;;;4993195;28;20177;-75
2022/08/02 02:28:29;;;;;;;2.00;1.65;;;24.30;85.20;;;;;;4975775;28;20178;-75
2022/08/02 02:31:07;;;;;;;1.60;1.50;;;24.30;85.10;;;;;;4992226;28;20189;-74
2022/08/02 02:33:45;;;;;;;1.65;1.55;;;24.30;85.00;;;;;;4975832;28;20189;-74
2022/08/02 02:36:15;;;;;;;1.55;1.45;;;24.30;85.00;;;;;;4994203;28;20178;-75
2022/08/02 02:38:44;;;;;;;1.50;1.40;;;24.30;85.10;;;;;;4976534;28;20189;-75
2022/08/02 02:41:12;;;;;;;1.92;1.60;;;24.30;85.00;;;;;;4995317;28;20215;-75
2022/08/02 02:43:42;;;;;;;1.75;1.50;;;24.30;85.00;;;;;;5012105;28;20189;-75
2022/08/02 02:46:09;;;;;;;2.90;1.42;;;24.30;84.90;;;;;;4996119;28;20196;-75
2022/08/02 02:48:36;;;;;;;1.50;1.40;;;24.30;84.90;;;;;;4979574;28;20185;-75
2022/08/02 02:51:04;;;;;;;1.80;1.60;;;24.30;84.90;;;;;;4979623;28;20189;-75
2022/08/02 02:53:32;;;;;;;1.67;1.58;;;24.30;84.70;;;;;;4995516;28;20177;-75
2022/08/02 02:55:58;;;;;;;1.60;1.50;;;24.30;84.60;;;;;;4996036;28;20195;-75
2022/08/02 02:58:24;;;;;;;1.50;1.40;;;24.30;84.70;;;;;;4995817;28;20188;-75
2022/08/02 03:03:36;;;;;;;1.55;1.45;;;24.30;84.60;;;;;;5010933;28;20216;-75
2022/08/02 03:06:04;;;;;;;1.50;1.40;;;24.30;84.50;;;;;;4995337;28;20209;-75
2022/08/02 03:08:29;;;;;;;1.52;1.42;;;24.20;84.40;;;;;;5014073;28;20185;-75
2022/08/02 03:10:56;;;;;;;2.03;1.33;;;24.30;84.30;;;;;;5013840;28;20199;-74
2022/08/02 03:13:23;;;;;;;1.40;1.30;;;24.30;84.40;;;;;;4995677;28;20188;-74
2022/08/02 03:15:54;;;;;;;1.60;1.50;;;24.20;84.20;;;;;;4979294;28;20248;-75
2022/08/02 03:18:49;;;;;;;1.58;1.48;;;24.20;84.30;;;;;;4994093;28;20271;-75
2022/08/02 03:21:15;;;;;;;1.85;1.52;;;24.30;84.30;;;;;;4982936;28;20652;-75
2022/08/02 03:23:42;;;;;;;1.52;1.42;;;24.20;84.10;;;;;;5011831;28;20220;-75
2022/08/02 03:26:09;;;;;;;1.60;1.50;;;24.30;84.20;;;;;;4998754;28;20206;-75
2022/08/02 03:28:35;;;;;;;1.45;1.35;;;24.20;83.80;;;;;;5017525;28;20212;-75
2022/08/02 03:31:01;;;;;;;1.30;1.20;;;24.20;83.90;;;;;;5001504;28;20185;-75
2022/08/02 03:33:29;;;;;;;1.50;1.27;;;24.20;83.80;;;;;;5002114;28;20191;-75
2022/08/02 03:36:00;;;;;;;1.85;1.40;;;24.20;83.70;;;;;;5018380;28;20184;-75
2022/08/02 03:38:29;;;;;;;1.65;1.55;;;24.20;84.50;;;;;;5001682;28;20197;-75
2022/08/02 03:40:56;;;;;;;1.30;1.20;;;24.20;83.70;;;;;;5001859;28;20239;-75
2022/08/02 03:43:24;;;;;;;1.60;1.50;;;24.20;83.70;;;;;;4999593;28;20189;-75
2022/08/02 03:45:52;;;;;;;1.50;1.40;;;24.20;83.50;;;;;;4999434;28;20181;-74
2022/08/02 03:48:18;;;;;;;1.52;1.42;;;24.20;83.50;;;;;;4999338;28;20224;-74
2022/08/02 03:50:47;;;;;;;1.52;1.42;;;24.20;83.40;;;;;;5000843;28;20196;-75
2022/08/02 03:53:16;;;;;;;1.75;1.65;;;24.20;83.50;;;;;;5000473;28;20276;-75
2022/08/02 03:55:43;;;;;;;1.40;1.30;;;24.20;83.40;;;;;;5001563;28;20267;-75
2022/08/02 03:58:16;;;;;;;1.48;1.38;;;24.20;84.20;;;;;;4984845;28;20228;-75
2022/08/02 04:00:42;;;;;;;1.60;1.50;;;24.20;83.40;;;;;;5017921;28;20215;-75
2022/08/02 04:03:07;;;;;;;1.50;1.40;;;24.20;83.30;;;;;;5018142;28;20184;-75
2022/08/02 04:05:33;;;;;;;1.52;1.42;;;24.20;83.30;;;;;;5016798;28;20232;-75
2022/08/02 04:07:59;;;;;;;1.40;1.30;;;24.20;83.30;;;;;;4999705;28;20208;-75
2022/08/02 04:10:25;;;;;;;1.70;1.60;;;24.20;83.30;;;;;;5017100;28;20223;-75
2022/08/02 04:12:52;;;;;;;1.58;1.48;;;24.20;83.30;;;;;;5016689;28;20185;-75
2022/08/02 04:15:18;;;;;;;1.55;1.40;;;24.20;83.20;;;;;;5000059;28;20276;-75
2022/08/02 04:17:56;;;;;;;1.30;1.20;;;24.20;83.20;;;;;;5016831;28;20244;-75
2022/08/02 04:20:28;;;;;;;1.58;1.48;;;24.20;83.90;;;;;;5016498;28;20204;-75
2022/08/02 04:23:13;;;;;;;1.25;1.20;;;24.20;83.80;;;;;;4985232;28;20191;-75
2022/08/02 04:25:40;;;;;;;1.35;1.25;;;24.20;83.00;;;;;;4984341;28;20185;-75
2022/08/02 04:28:08;;;;;;;1.20;1.20;;;24.20;83.00;;;;;;5000779;28;20201;-74
2022/08/02 04:30:38;;;;;;;1.27;1.20;;;24.20;82.90;;;;;;5001133;28;20180;-75
2022/08/02 04:33:05;;;;;;;1.10;1.10;;;24.20;82.90;;;;;;5000925;28;20188;-74
2022/08/02 04:35:31;;;;;;;1.65;1.55;;;24.20;82.90;;;;;;5000487;28;20177;-75
2022/08/02 04:37:58;;;;;;;1.25;1.15;;;24.20;82.80;;;;;;4980205;28;20208;-75
2022/08/02 04:40:24;;;;;;;1.13;1.13;;;24.20;82.80;;;;;;4996110;28;20302;-75
2022/08/02 04:42:50;;;;;;;1.33;1.23;;;24.20;82.80;;;;;;4996494;28;20276;-75
2022/08/02 04:45:16;;;;;;;1.33;1.23;;;24.10;82.70;;;;;;5013106;28;20263;-75
2022/08/02 04:47:42;;;;;;;1.35;1.30;;;24.20;83.50;;;;;;4980308;28;20200;-75
2022/08/02 04:50:09;;;;;;;1.50;1.40;;;24.10;82.70;;;;;;5012245;28;20279;-75
2022/08/02 04:52:34;;;;;;;1.40;1.20;;;24.20;82.60;;;;;;5013508;28;20276;-75
2022/08/02 04:55:00;;;;;;;1.38;1.30;;;24.10;82.60;;;;;;4996379;28;20221;-75
2022/08/02 05:00:11;;;;;;;1.30;1.20;;;24.10;83.10;;;;;;5012543;28;20223;-75
2022/08/02 05:02:37;;;;;;;1.27;1.15;;;24.10;82.40;;;;;;4980717;28;20185;-75
2022/08/02 05:05:03;;;;;;;1.20;1.10;;;24.10;82.30;;;;;;4996641;28;20189;-75
2022/08/02 05:07:29;;;;;;;1.10;1.10;;;24.10;82.30;;;;;;4997672;28;20243;-75
2022/08/02 05:09:55;;;;;;;1.73;1.25;;;24.10;82.30;;;;;;5014508;28;20189;-75
2022/08/02 05:12:24;;;;;;;1.42;1.30;;;24.10;82.30;;;;;;4997165;28;20181;-75
2022/08/02 05:14:50;;;;;;;1.08;1.08;;;24.10;82.20;;;;;;5014246;28;20173;-74
2022/08/02 05:17:16;;;;;;;1.50;1.40;;;24.10;82.10;;;;;;4997143;28;20203;-75
2022/08/02 05:19:42;;;;;;;1.00;1.00;;;24.10;83.10;;;;;;5013886;28;20588;-74
2022/08/02 05:22:08;;;;;;;1.33;1.23;;;24.20;82.40;;;;;;4997425;28;20213;-74
2022/08/02 05:24:34;;;;;;;1.25;1.15;;;24.20;82.30;;;;;;4998364;28;20214;-74
2022/08/02 05:26:59;;;;;;;1.70;1.38;;;24.10;82.40;;;;;;4980913;28;20271;-74
2022/08/02 05:29:25;;;;;;;1.20;1.10;;;24.20;82.50;;;;;;5009825;28;20193;-74
2022/08/02 05:31:51;;;;;;;1.42;1.20;;;24.10;82.40;;;;;;4980920;28;20231;-74
2022/08/02 05:34:17;;;;;;;1.38;1.10;;;24.10;82.70;;;;;;5014229;28;20190;-74
2022/08/02 05:36:43;;;;;;;2.15;1.35;;;24.20;83.30;;;;;;5003048;28;20240;-74
2022/08/02 05:39:09;;;;;;;2.28;1.30;;;24.20;83.30;;;;;;5017908;28;20181;-74
2022/08/02 05:41:35;;;;;;;1.15;1.10;;;24.20;83.60;;;;;;5018760;28;20193;-76
2022/08/02 05:44:03;;;;;;;3.75;1.70;;;24.20;83.40;;;;;;5014341;28;20192;-74
2022/08/02 05:46:28;;;;;;;2.70;2.13;;;23.50;83.80;;;;;;5011329;28;20244;-73
2022/08/02 05:48:54;;;;;;;1.80;1.70;;;23.00;87.70;;;;;;5015051;28;20181;-73
2022/08/02 05:51:38;;;;;;;2.10;1.90;;;22.80;90.00;;;;;;5015731;28;20196;-74
2022/08/02 05:54:39;;;;;;;4.00;2.03;;;22.70;91.40;;;;;;5015210;28;20220;-74
2022/08/02 05:57:19;;;;;;;3.60;2.40;;;22.60;94.00;;;;;;4982665;28;20216;-74
2022/08/02 05:59:56;;;;;;;2.22;2.03;;;22.40;96.60;;;;;;5013729;28;20223;-74
2022/08/02 06:02:31;;;;;;;2.38;2.13;;;22.40;98.10;;;;;;4994260;28;20181;-74
2022/08/02 06:05:13;;;;;;;4.40;1.90;;;22.40;99.80;;;;;;5016622;28;20184;-74
2022/08/02 06:07:43;;;;;;;4.25;2.40;;;22.40;99.90;;;;;;4996676;28;20212;-73
2022/08/02 06:10:12;;;;;;;1.90;1.80;;;22.40;99.90;;;;;;4994861;28;20181;-74
2022/08/02 06:12:50;;;;;;;2.70;2.00;;;22.30;99.90;;;;;;5004354;28;20193;-73
2022/08/02 06:15:18;;;;;;;3.92;1.80;;;22.30;99.90;;;;;;4980221;28;20185;-73
2022/08/02 06:17:46;;;;;;;2.40;1.80;;;22.30;99.90;;;;;;4999567;28;20214;-74
2022/08/02 06:20:14;;;;;;;2.58;1.77;;;22.30;99.90;;;;;;4994954;28;20204;-73
2022/08/02 06:22:44;;;;;;;1.52;1.42;;;22.20;99.90;;;;;;5019992;28;20189;-73
2022/08/02 06:25:12;;;;;;;1.65;1.55;;;22.20;99.90;;;;;;4994131;28;20197;-74
2022/08/02 06:27:40;;;;;;;3.10;1.50;;;22.30;99.90;;;;;;5024081;28;20201;-73
2022/08/02 06:30:08;;;;;;;4.38;1.75;;;22.40;99.90;;;;;;5019458;28;20284;-73
2022/08/02 06:32:35;;;;;;;2.33;1.80;;;22.40;99.90;;;;;;4988059;28;20193;-73
2022/08/02 06:35:03;;;;;;;4.63;1.88;;;22.40;99.90;;;;;;4992141;28;20217;-73
2022/08/02 06:37:40;;;;;;;1.67;1.40;;;22.50;99.90;;;;;;4990752;28;20244;-73
2022/08/02 06:40:44;;;;;;;2.17;1.90;;;22.50;99.90;;;;;;4990186;28;20242;-73
2022/08/02 06:43:58;;;;;;;2.13;1.63;;;22.60;99.90;;;;;;4968534;28;20204;-73
2022/08/02 06:46:23;;;;;;;2.13;1.40;;;22.70;99.90;;;;;;4982176;28;20363;-73
2022/08/02 06:48:49;;;;;;;2.65;1.50;;;22.80;99.90;;;;;;4973660;28;20205;-73
2022/08/02 06:51:16;;;;;;;2.40;1.80;;;22.90;99.90;;;;;;4977102;28;20268;-74
2022/08/02 06:53:43;;;;;;;1.58;1.30;;;22.90;99.90;;;;;;4986228;28;20235;-73
2022/08/02 06:56:09;;;;;;;1.73;1.40;;;23.00;99.90;;;;;;5011483;28;20260;-74
2022/08/02 06:58:35;;;;;;;1.70;1.60;;;23.10;99.90;;;;;;4992956;28;20304;-74
2022/08/02 07:01:01;;;;;;;1.33;1.23;;;23.00;99.90;;;;;;4991780;28;20821;-73
2022/08/02 07:03:27;;;;;;;1.67;1.40;;;23.00;99.90;;;;;;4991024;28;20177;-73
2022/08/02 07:05:53;;;;;;;1.42;1.33;;;23.10;99.90;;;;;;5011529;28;20227;-73
2022/08/02 07:08:19;;;;;;;2.72;1.52;;;23.00;99.90;;;;;;4994311;28;20228;-73
2022/08/02 07:10:46;;;;;;;1.83;1.70;;;23.00;99.90;;;;;;5000117;28;20189;-72
2022/08/02 07:13:12;;;;;;;2.53;1.50;;;23.10;99.90;;;;;;4978719;28;20184;-73
2022/08/02 07:15:38;;;;;;;1.30;1.10;;;23.10;99.90;;;;;;5011483;28;20236;-73
2022/08/02 07:18:05;;;;;;;1.23;1.10;;;23.20;99.90;;;;;;4997512;28;20220;-73
2022/08/02 07:20:31;;;;;;;2.67;1.30;;;23.20;99.90;;;;;;4975546;28;20221;-73
2022/08/02 07:22:57;;;;;;;1.70;1.60;;;23.30;99.90;;;;;;4986227;28;20185;-74
2022/08/02 07:25:23;;;;;;;1.95;1.25;;;23.30;99.90;;;;;;4990840;28;20557;-74
2022/08/02 07:27:49;;;;;;;2.45;1.40;;;23.40;99.90;;;;;;4974814;28;20202;-74
2022/08/02 07:30:15;;;;;;;2.15;1.40;;;23.30;99.90;;;;;;4988827;28;20648;-74
2022/08/02 07:32:41;;;;;;;1.70;1.60;;;23.40;99.90;;;;;;5022862;28;20712;-74
2022/08/02 07:35:07;;;;;;;2.10;1.48;;;23.40;99.90;;;;;;4983202;28;20191;-73
2022/08/02 07:37:37;;;;;;;1.63;1.52;;;23.40;99.90;;;;;;4992250;28;20269;-73
2022/08/02 07:40:05;;;;;;;2.10;1.30;;;23.40;99.90;;;;;;4986620;28;20291;-74
2022/08/02 07:42:31;;;;;;;2.13;1.05;;;23.50;99.90;;;;;;5017382;28;20180;-73
2022/08/02 07:44:57;;;;;;;1.95;1.35;;;23.60;99.90;;;;;;5022770;28;20192;-73
2022/08/02 07:47:23;;;;;;;1.65;1.27;;;23.70;98.40;;;;;;5008477;28;20201;-74
2022/08/02 07:49:49;;;;;;;1.50;1.40;;;23.80;97.30;;;;;;5006339;28;20555;-74
2022/08/02 07:52:14;;;;;;;4.22;1.60;;;23.80;96.60;;;;;;5010502;28;20200;-73
2022/08/02 07:54:40;;;;;;;2.35;1.40;;;23.80;96.00;;;;;;5010184;28;20193;-74
2022/08/02 07:57:06;;;;;;;2.03;1.15;;;23.80;95.90;;;;;;5010323;28;20216;-72
2022/08/02 07:59:32;;;;;;;1.58;1.35;;;23.80;95.70;;;;;;5009594;28;20216;-73
2022/08/02 08:01:58;;;;;;;1.67;1.23;;;23.70;95.20;;;;;;5010012;28;20685;-73
2022/08/02 08:04:23;;;;;;;1.60;1.50;;;23.80;95.20;;;;;;4992613;28;20203;-73
2022/08/02 08:06:51;;;;;;;2.15;1.50;;;23.80;94.90;;;;;;5008966;28;20216;-73
2022/08/02 08:09:18;;;;;;;1.48;1.38;;;23.80;94.70;;;;;;5008821;28;20247;-73
2022/08/02 08:11:44;;;;;;;1.63;1.52;;;23.90;94.30;;;;;;5011160;28;20196;-74
2022/08/02 08:14:10;;;;;;;1.20;1.10;;;23.90;93.80;;;;;;5013907;28;20189;-74
2022/08/02 08:16:36;;;;;;;1.90;1.33;;;24.00;93.60;;;;;;4997038;28;20212;-73
2022/08/02 08:19:02;;;;;;;1.40;1.30;;;24.10;93.40;;;;;;5012987;28;20191;-73
2022/08/02 08:21:28;;;;;;;3.00;1.67;;;24.10;93.50;;;;;;4997061;28;20191;-73
2022/08/02 08:23:55;;;;;;;1.63;1.50;;;24.10;93.70;;;;;;4997681;28;20173;-73
2022/08/02 08:26:22;;;;;;;2.45;1.63;;;24.10;94.00;;;;;;5013843;28;20292;-73
2022/08/02 08:28:48;;;;;;;2.17;1.50;;;24.20;94.60;;;;;;4996491;28;20188;-73
2022/08/02 08:31:14;;;;;;;3.67;1.70;;;24.20;94.40;;;;;;5013420;28;20184;-73
2022/08/02 08:33:39;;;;;;;3.20;1.52;;;24.30;94.60;;;;;;5013076;28;20189;-73
2022/08/02 08:36:06;;;;;;;4.57;1.58;;;24.30;94.20;;;;;;4996435;28;20185;-73
2022/08/02 08:38:31;;;;;;;1.77;1.30;;;24.30;94.40;;;;;;4996476;28;20189;-73
2022/08/02 08:40:57;;;;;;;3.92;1.70;;;24.30;94.60;;;;;;5013375;28;20244;-73
2022/08/02 08:43:23;;;;;;;2.20;1.55;;;24.30;94.60;;;;;;4996505;28;20664;-73
2022/08/02 08:45:49;;;;;;;2.25;1.88;;;24.40;94.50;;;;;;4996072;28;20208;-73
2022/08/02 08:48:17;;;;;;;4.47;1.77;;;24.40;94.40;;;;;;5012936;28;20223;-73
2022/08/02 08:50:59;;;;;;;7.65;2.00;;;24.40;94.50;;;;;;5011899;28;20217;-74
2022/08/02 08:53:30;;;;;;;3.17;1.52;;;24.40;94.50;;;;;;5012541;28;20192;-74
2022/08/02 08:55:58;;;;;;;3.35;1.40;;;24.40;94.70;;;;;;5012526;28;20225;-73
2022/08/02 08:58:24;;;;;;;2.58;1.60;;;24.30;94.60;;;;;;5012467;28;20216;-73
2022/08/02 09:00:50;;;;;;;3.35;1.95;;;24.30;94.70;;;;;;5012908;28;20205;-73
2022/08/02 09:03:16;;;;;;;3.80;1.85;;;24.40;94.80;;;;;;5012760;28;20189;-73
2022/08/02 09:05:45;;;;;;;5.45;2.00;;;24.40;94.70;;;;;;4994480;28;20197;-73
2022/08/02 09:08:12;;;;;;;3.40;1.98;;;24.40;94.80;;;;;;4977116;28;20220;-74
2022/08/02 09:10:46;;;;;;;4.68;2.00;;;24.40;94.50;;;;;;4992365;28;20202;-73
2022/08/02 09:13:28;;;;;;;5.07;2.03;;;24.50;94.40;;;;;;4993125;28;20232;-74
2022/08/02 09:16:05;;;;;;;3.75;1.83;;;24.50;94.00;;;;;;4992770;28;20193;-73
2022/08/02 09:18:38;;;;;;;5.45;2.30;;;24.50;93.90;;;;;;4992018;28;20185;-73
2022/08/02 09:21:08;;;;;;;5.35;2.30;;;24.50;93.90;;;;;;4992862;28;20592;-74
2022/08/02 09:23:37;;;;;;;4.50;2.25;;;24.50;93.70;;;;;;4991899;28;20225;-73
2022/08/02 09:26:10;;;;;;;5.00;1.90;;;24.50;93.70;;;;;;4992527;28;20256;-73
2022/08/02 09:28:39;;;;;;;7.60;2.33;;;24.50;93.90;;;;;;4992245;28;20637;-73
2022/08/02 09:31:10;;;;;;;4.05;2.05;;;24.50;93.90;;;;;;4977151;28;20193;-74
2022/08/02 09:33:39;;;;;;;5.93;2.30;;;24.50;93.90;;;;;;4993493;28;20186;-74
2022/08/02 09:36:11;;;;;;;4.65;2.25;;;24.50;93.80;;;;;;4993081;28;20209;-74
2022/08/02 09:38:39;;;;;;;5.25;2.40;;;24.50;93.70;;;;;;4976098;28;20669;-73
2022/08/02 09:41:19;;;;;;;6.00;2.10;;;24.50;92.80;;;;;;4991778;28;20616;-74
2022/08/02 09:43:45;;;;;;;4.47;1.90;;;24.60;92.40;;;;;;4993563;28;20185;-74
2022/08/02 09:46:19;;;;;;;3.53;2.00;;;24.60;92.50;;;;;;4976523;28;20272;-73
2022/08/02 09:48:50;;;;;;;3.95;2.15;;;24.60;92.50;;;;;;4992074;28;20182;-74
2022/08/02 09:51:26;;;;;;;3.55;1.98;;;24.60;92.30;;;;;;4993099;28;20186;-73
2022/08/02 09:53:57;;;;;;;4.43;1.92;;;24.60;92.10;;;;;;4992004;28;20189;-74
2022/08/02 09:56:26;;;;;;;5.68;2.00;;;24.60;92.20;;;;;;4975924;28;20214;-74
2022/08/02 09:58:55;;;;;;;4.15;1.70;;;24.60;92.30;;;;;;4992102;28;20244;-73
2022/08/02 10:01:31;;;;;;;4.00;1.83;;;24.60;92.10;;;;;;4992188;28;20260;-73
2022/08/02 10:04:01;;;;;;;3.97;1.90;;;24.60;91.90;;;;;;4992659;28;20181;-74
2022/08/02 10:06:27;;;;;;;1.85;1.38;;;24.60;91.60;;;;;;4991704;28;20212;-74
2022/08/02 10:08:54;;;;;;;3.13;1.63;;;24.60;91.60;;;;;;4991583;28;20216;-73
2022/08/02 10:11:23;;;;;;;3.25;1.92;;;24.60;91.30;;;;;;4976349;28;20186;-74
2022/08/02 10:13:50;;;;;;;3.90;1.90;;;24.60;91.00;;;;;;4993068;28;20186;-74
2022/08/02 10:16:22;;;;;;;2.60;1.73;;;24.60;90.90;;;;;;4992820;28;20280;-73
2022/08/02 10:18:53;;;;;;;2.33;1.70;;;24.60;91.30;;;;;;4992274;28;20264;-73
2022/08/02 10:21:32;;;;;;;3.03;1.83;;;24.60;91.30;;;;;;4992369;28;20307;-74
2022/08/02 10:24:11;;;;;;;3.13;1.90;;;24.60;92.00;;;;;;4992281;28;20198;-73
2022/08/02 10:26:41;;;;;;;2.80;2.10;;;24.70;92.10;;;;;;4992087;28;20209;-74
2022/08/02 10:29:09;;;;;;;2.13;1.85;;;24.70;92.30;;;;;;4992021;28;20197;-74
2022/08/02 10:31:50;;;;;;;3.20;1.70;;;24.70;92.80;;;;;;4975579;28;20189;-74
2022/08/02 10:34:26;;;;;;;3.90;1.83;;;24.70;93.30;;;;;;4991709;28;20197;-74
2022/08/02 10:36:53;;;;;;;2.25;1.50;;;24.70;93.60;;;;;;4990499;28;20292;-75
2022/08/02 10:39:19;;;;;;;3.33;1.80;;;24.80;93.90;;;;;;4974295;28;20185;-74
2022/08/02 10:41:51;;;;;;;3.55;1.90;;;24.80;94.30;;;;;;4975671;28;20321;-74
2022/08/02 10:44:28;;;;;;;3.95;1.50;;;24.80;94.20;;;;;;4977484;28;20194;-73
2022/08/02 10:47:13;;;;;;;2.63;1.60;;;24.80;94.40;;;;;;4992851;28;20213;-74
2022/08/02 10:50:09;;;;;;;2.83;1.67;;;24.80;94.30;;;;;;4994739;28;20224;-74
2022/08/02 10:52:34;;;;;;;1.50;1.40;;;24.80;94.30;;;;;;4950213;28;20236;-74
2022/08/02 10:55:13;;;;;;;2.65;1.80;;;24.80;94.10;;;;;;4979390;28;20181;-73
2022/08/02 10:57:39;;;;;;;2.17;1.50;;;24.80;93.80;;;;;;5005289;28;20208;-74
2022/08/02 11:00:23;;;;;;;5.55;1.90;;;24.80;93.60;;;;;;5015389;28;20630;-74
2022/08/02 11:02:50;;;;;;;3.08;1.95;;;24.80;93.30;;;;;;4998333;28;20188;-74
2022/08/02 11:05:35;;;;;;;2.85;1.55;;;24.80;93.10;;;;;;5006376;28;20177;-74
2022/08/02 11:08:21;;;;;;;5.00;1.70;;;24.80;93.60;;;;;;5013523;28;20213;-74
2022/08/02 11:10:47;;;;;;;2.15;1.73;;;24.80;93.00;;;;;;4988896;28;20201;-75
2022/08/02 11:13:18;;;;;;;2.67;1.42;;;24.80;92.70;;;;;;5033832;28;20188;-74
2022/08/02 11:16:00;;;;;;;3.50;1.63;;;24.80;92.40;;;;;;5013238;28;20185;-75
2022/08/02 11:18:50;;;;;;;2.72;1.48;;;24.80;92.10;;;;;;5014306;28;20185;-75
2022/08/02 11:21:24;;;;;;;2.00;1.70;;;24.80;91.40;;;;;;4989833;28;20216;-76
2022/08/02 11:23:54;;;;;;;2.28;1.60;;;24.80;91.20;;;;;;5022765;28;20249;-75
2022/08/02 11:26:32;;;;;;;3.75;1.73;;;24.80;90.70;;;;;;4997670;28;20315;-74
2022/08/02 11:29:03;;;;;;;4.78;1.92;;;24.90;90.90;;;;;;4988844;28;20181;-75
2022/08/02 11:31:38;;;;;;;3.33;1.70;;;24.90;90.80;;;;;;5007776;28;20196;-75
2022/08/02 11:34:05;;;;;;;3.95;1.80;;;24.90;90.70;;;;;;5024858;28;20216;-75
2022/08/02 11:36:31;;;;;;;1.80;1.70;;;24.80;90.50;;;;;;4993716;28;20348;-74
2022/08/02 11:39:18;;;;;;;3.80;1.77;;;24.90;90.50;;;;;;4995175;28;20205;-74
2022/08/02 11:41:55;;;;;;;3.50;1.42;;;24.90;90.30;;;;;;5005070;28;20200;-75
2022/08/02 11:44:26;;;;;;;1.58;1.30;;;24.90;90.10;;;;;;5004670;28;20252;-74
2022/08/02 11:47:01;;;;;;;1.85;1.50;;;24.90;89.90;;;;;;4992421;28;20213;-75
2022/08/02 11:49:28;;;;;;;1.70;1.58;;;24.90;89.50;;;;;;4997349;28;20312;-74
2022/08/02 11:52:03;;;;;;;3.40;1.80;;;24.90;88.90;;;;;;5020303;28;20645;-75
2022/08/02 11:54:39;;;;;;;1.67;1.58;;;24.90;89.20;;;;;;4988072;28;20199;-74
2022/08/02 11:57:21;;;;;;;1.98;1.45;;;24.90;89.20;;;;;;5032022;28;20201;-74
2022/08/02 11:59:58;;;;;;;1.50;1.33;;;24.90;89.60;;;;;;4995974;28;20248;-74
2022/08/02 12:02:30;;;;;;;2.17;1.73;;;24.90;89.30;;;;;;5025594;28;20189;-74
2022/08/02 12:05:06;;;;;;;1.77;1.65;;;24.90;89.10;;;;;;4999101;28;20189;-75
2022/08/02 12:07:41;;;;;;;1.42;1.33;;;24.90;88.40;;;;;;4998003;28;20212;-75
2022/08/02 12:10:16;;;;;;;2.42;1.50;;;24.90;88.60;;;;;;5003677;28;20196;-74
2022/08/02 12:12:58;;;;;;;2.75;1.83;;;24.90;88.10;;;;;;4996940;28;20181;-74
2022/08/02 12:15:44;;;;;;;1.75;1.50;;;24.90;88.00;;;;;;4997357;28;20196;-75
2022/08/02 12:21:25;;;;;;;1.70;1.60;;;24.90;87.00;;;;;;5001317;28;20307;-75
2022/08/02 12:23:52;;;;;;;3.13;1.42;;;24.90;86.90;;;;;;5008481;28;20189;-74
2022/08/02 12:26:18;;;;;;;2.15;1.80;;;24.90;86.50;;;;;;5009054;28;20173;-74
2022/08/02 12:28:44;;;;;;;3.25;1.20;;;24.90;86.50;;;;;;5023473;28;20193;-73
2022/08/02 12:31:14;;;;;;;1.25;1.17;;;24.90;86.30;;;;;;4978508;28;20306;-74
2022/08/02 12:33:50;;;;;;;3.25;1.10;;;24.90;86.40;;;;;;4978958;28;20216;-75
2022/08/02 12:36:28;;;;;;;1.33;1.20;;;24.90;86.30;;;;;;4979503;28;20188;-74
2022/08/02 12:39:00;;;;;;;4.53;1.80;;;24.90;86.40;;;;;;4997949;28;20230;-74
2022/08/02 12:41:28;;;;;;;2.30;1.40;;;24.90;86.10;;;;;;5031958;28;20222;-75
2022/08/02 12:43:55;;;;;;;1.95;1.48;;;24.90;86.20;;;;;;5020102;28;20236;-75
2022/08/02 12:46:23;;;;;;;3.00;1.77;;;24.90;86.00;;;;;;5036251;28;20262;-76
2022/08/02 12:48:49;;;;;;;1.92;1.67;;;25.00;86.00;;;;;;5033975;28;20188;-74
2022/08/02 12:51:24;;;;;;;1.90;1.58;;;25.00;86.10;;;;;;5004572;28;20557;-76
2022/08/02 12:53:52;;;;;;;2.80;1.50;;;25.00;86.00;;;;;;5014190;28;20185;-76
2022/08/02 12:56:36;;;;;;;3.10;1.52;;;25.00;85.50;;;;;;4998990;28;20617;-77
2022/08/02 12:59:03;;;;;;;5.82;1.95;;;25.00;86.20;;;;;;4990583;28;20566;-76
2022/08/02 13:01:29;;;;;;;4.40;1.83;;;25.00;85.20;;;;;;4976641;28;20218;-76
2022/08/02 13:03:57;;;;;;;3.75;1.77;;;25.00;85.20;;;;;;4976840;28;20182;-76
2022/08/02 13:06:24;;;;;;;8.13;1.95;;;25.00;85.20;;;;;;4977244;28;20227;-76
2022/08/02 13:08:57;;;;;;;7.55;2.90;;;25.00;85.30;;;;;;5021232;28;20196;-74
2022/08/02 13:11:27;;;;;;;9.02;2.58;;;25.00;85.50;;;;;;5018093;28;20178;-77